sensor_id;sensor_type;location;lat;lon;timestamp;pressure;altitude;pressure_sealevel;temperature;humidity
54806;BME280;62866;55.776;37.496;2023-03-13T00:00:13;98394.59;;;-3.73;99.62
54806;BME280;62866;55.776;37.496;2023-03-13T00:02:40;98407.94;;;-3.66;99.55
54806;BME280;62866;55.776;37.496;2023-03-13T00:05:05;98411.38;;;-3.66;99.83
54806;BME280;62866;55.776;37.496;2023-03-13T00:07:31;98412.22;;;-3.65;99.56
54806;BME280;62866;55.776;37.496;2023-03-13T00:09:56;98413.84;;;-3.74;99.49
54806;BME280;62866;55.776;37.496;2023-03-13T00:12:22;98424.66;;;-3.88;99.40
54806;BME280;62866;55.776;37.496;2023-03-13T00:14:47;98423.81;;;-3.89;99.63
54806;BME280;62866;55.776;37.496;2023-03-13T00:17:13;98428.22;;;-3.89;99.61
54806;BME280;62866;55.776;37.496;2023-03-13T00:19:38;98434.38;;;-3.90;99.58
54806;BME280;62866;55.776;37.496;2023-03-13T00:22:07;98442.38;;;-3.82;99.62
54806;BME280;62866;55.776;37.496;2023-03-13T00:24:33;98431.41;;;-3.86;99.78
54806;BME280;62866;55.776;37.496;2023-03-13T00:26:58;98432.22;;;-3.85;99.20
54806;BME280;62866;55.776;37.496;2023-03-13T00:29:28;98448.84;;;-3.86;99.47
54806;BME280;62866;55.776;37.496;2023-03-13T00:31:54;98450.81;;;-3.99;99.29
54806;BME280;62866;55.776;37.496;2023-03-13T00:34:20;98451.66;;;-3.99;99.18
54806;BME280;62866;55.776;37.496;2023-03-13T00:36:46;98453.31;;;-3.98;98.72
54806;BME280;62866;55.776;37.496;2023-03-13T00:39:12;98451.66;;;-3.99;98.59
54806;BME280;62866;55.776;37.496;2023-03-13T00:41:37;98453.75;;;-3.93;98.79
54806;BME280;62866;55.776;37.496;2023-03-13T00:44:03;98459.94;;;-3.94;98.41
54806;BME280;62866;55.776;37.496;2023-03-13T00:46:30;98476.28;;;-3.92;99.00
54806;BME280;62866;55.776;37.496;2023-03-13T00:48:56;98473.19;;;-3.86;98.84
54806;BME280;62866;55.776;37.496;2023-03-13T00:51:23;98475.97;;;-3.77;98.85
54806;BME280;62866;55.776;37.496;2023-03-13T00:53:51;98480.78;;;-3.73;99.15
54806;BME280;62866;55.776;37.496;2023-03-13T00:56:19;98483.25;;;-3.71;98.83
54806;BME280;62866;55.776;37.496;2023-03-13T00:58:46;98486.78;;;-3.82;99.02
54806;BME280;62866;55.776;37.496;2023-03-13T01:01:18;98491.44;;;-3.86;99.17
54806;BME280;62866;55.776;37.496;2023-03-13T01:03:46;98467.91;;;-3.95;99.10
54806;BME280;62866;55.776;37.496;2023-03-13T01:06:15;98470.50;;;-3.95;98.87
54806;BME280;62866;55.776;37.496;2023-03-13T01:08:41;98508.50;;;-3.82;98.96
54806;BME280;62866;55.776;37.496;2023-03-13T01:11:12;98514.44;;;-3.79;99.41
54806;BME280;62866;55.776;37.496;2023-03-13T01:13:38;98522.25;;;-3.79;99.43
54806;BME280;62866;55.776;37.496;2023-03-13T01:16:13;98527.94;;;-3.95;98.77
54806;BME280;62866;55.776;37.496;2023-03-13T01:18:41;98527.38;;;-3.99;98.73
54806;BME280;62866;55.776;37.496;2023-03-13T01:21:07;98526.63;;;-4.10;98.94
54806;BME280;62866;55.776;37.496;2023-03-13T01:23:33;98539.78;;;-4.12;98.34
54806;BME280;62866;55.776;37.496;2023-03-13T01:25:59;98543.59;;;-4.16;98.30
54806;BME280;62866;55.776;37.496;2023-03-13T01:28:25;98545.06;;;-4.23;98.28
54806;BME280;62866;55.776;37.496;2023-03-13T01:30:51;98558.94;;;-4.23;97.79
54806;BME280;62866;55.776;37.496;2023-03-13T01:33:18;98559.81;;;-4.33;97.79
54806;BME280;62866;55.776;37.496;2023-03-13T01:35:44;98566.59;;;-4.42;97.68
54806;BME280;62866;55.776;37.496;2023-03-13T01:38:10;98576.91;;;-4.40;97.78
54806;BME280;62866;55.776;37.496;2023-03-13T01:40:43;98576.34;;;-4.44;98.21
54806;BME280;62866;55.776;37.496;2023-03-13T01:43:26;98586.41;;;-4.39;97.72
54806;BME280;62866;55.776;37.496;2023-03-13T01:46:10;98589.41;;;-4.44;97.61
54806;BME280;62866;55.776;37.496;2023-03-13T01:53:55;98601.25;;;-4.51;97.49
54806;BME280;62866;55.776;37.496;2023-03-13T01:56:28;98610.06;;;-4.52;97.42
54806;BME280;62866;55.776;37.496;2023-03-13T01:58:56;98611.81;;;-4.52;97.03
54806;BME280;62866;55.776;37.496;2023-03-13T02:01:23;98620.00;;;-4.57;97.03
54806;BME280;62866;55.776;37.496;2023-03-13T02:03:50;98625.09;;;-4.55;97.05
54806;BME280;62866;55.776;37.496;2023-03-13T02:06:16;98630.66;;;-4.60;96.78
54806;BME280;62866;55.776;37.496;2023-03-13T02:08:49;98637.69;;;-4.61;97.06
54806;BME280;62866;55.776;37.496;2023-03-13T02:11:23;98639.59;;;-4.63;97.10
54806;BME280;62866;55.776;37.496;2023-03-13T02:13:52;98648.47;;;-4.65;96.75
54806;BME280;62866;55.776;37.496;2023-03-13T02:16:19;98638.28;;;-4.68;97.09
54806;BME280;62866;55.776;37.496;2023-03-13T02:18:46;98643.03;;;-4.73;96.77
54806;BME280;62866;55.776;37.496;2023-03-13T02:21:23;98658.44;;;-4.81;96.88
54806;BME280;62866;55.776;37.496;2023-03-13T02:24:24;98655.72;;;-4.80;97.00
54806;BME280;62866;55.776;37.496;2023-03-13T02:26:52;98661.28;;;-4.84;97.18
54806;BME280;62866;55.776;37.496;2023-03-13T02:29:19;98659.75;;;-4.87;96.78
54806;BME280;62866;55.776;37.496;2023-03-13T02:31:46;98675.28;;;-4.85;96.85
54806;BME280;62866;55.776;37.496;2023-03-13T02:34:14;98597.31;;;-5.33;96.83
54806;BME280;62866;55.776;37.496;2023-03-13T02:36:42;98683.13;;;-4.85;97.08
54806;BME280;62866;55.776;37.496;2023-03-13T02:39:10;98688.31;;;-4.85;97.32
54806;BME280;62866;55.776;37.496;2023-03-13T02:41:39;98678.34;;;-4.91;97.24
54806;BME280;62866;55.776;37.496;2023-03-13T02:44:06;98697.56;;;-4.81;97.00
54806;BME280;62866;55.776;37.496;2023-03-13T02:46:45;98714.25;;;-4.84;96.96
54806;BME280;62866;55.776;37.496;2023-03-13T02:49:30;98705.13;;;-4.89;96.41
54806;BME280;62866;55.776;37.496;2023-03-13T02:51:57;98710.94;;;-4.97;96.66
54806;BME280;62866;55.776;37.496;2023-03-13T02:54:34;98713.44;;;-4.95;96.64
54806;BME280;62866;55.776;37.496;2023-03-13T02:57:03;98714.50;;;-4.98;96.75
54806;BME280;62866;55.776;37.496;2023-03-13T02:59:29;98720.41;;;-5.07;96.84
54806;BME280;62866;55.776;37.496;2023-03-13T03:01:55;98727.75;;;-5.01;96.95
54806;BME280;62866;55.776;37.496;2023-03-13T03:04:21;98712.09;;;-5.01;96.81
54806;BME280;62866;55.776;37.496;2023-03-13T03:06:48;98730.25;;;-5.00;97.03
54806;BME280;62866;55.776;37.496;2023-03-13T03:09:14;98726.22;;;-5.04;96.61
54806;BME280;62866;55.776;37.496;2023-03-13T03:11:40;98734.88;;;-5.03;97.08
54806;BME280;62866;55.776;37.496;2023-03-13T03:14:06;98737.69;;;-5.06;96.61
54806;BME280;62866;55.776;37.496;2023-03-13T03:16:31;98742.19;;;-5.08;96.73
54806;BME280;62866;55.776;37.496;2023-03-13T03:18:57;98753.22;;;-5.05;96.66
54806;BME280;62866;55.776;37.496;2023-03-13T03:21:24;98744.91;;;-5.10;96.47
54806;BME280;62866;55.776;37.496;2023-03-13T03:23:49;98758.09;;;-5.11;96.53
54806;BME280;62866;55.776;37.496;2023-03-13T03:26:16;98768.84;;;-5.16;96.44
54806;BME280;62866;55.776;37.496;2023-03-13T03:28:41;98768.84;;;-5.16;96.39
54806;BME280;62866;55.776;37.496;2023-03-13T03:31:10;98771.22;;;-5.13;96.49
54806;BME280;62866;55.776;37.496;2023-03-13T03:33:37;98773.31;;;-5.18;96.40
54806;BME280;62866;55.776;37.496;2023-03-13T03:36:05;98776.75;;;-5.17;96.28
54806;BME280;62866;55.776;37.496;2023-03-13T03:38:32;98774.16;;;-5.17;96.17
54806;BME280;62866;55.776;37.496;2023-03-13T03:40:58;98772.63;;;-5.20;96.05
54806;BME280;62866;55.776;37.496;2023-03-13T03:43:24;98784.22;;;-5.24;96.03
54806;BME280;62866;55.776;37.496;2023-03-13T03:45:50;98785.50;;;-5.18;95.74
54806;BME280;62866;55.776;37.496;2023-03-13T03:48:15;98802.34;;;-5.22;95.86
54806;BME280;62866;55.776;37.496;2023-03-13T03:50:41;98796.50;;;-5.26;95.88
54806;BME280;62866;55.776;37.496;2023-03-13T03:53:07;98795.69;;;-5.26;95.81
54806;BME280;62866;55.776;37.496;2023-03-13T03:55:32;98795.31;;;-5.33;95.51
54806;BME280;62866;55.776;37.496;2023-03-13T03:57:58;98797.81;;;-5.31;95.82
54806;BME280;62866;55.776;37.496;2023-03-13T04:00:24;98816.03;;;-5.31;95.74
54806;BME280;62866;55.776;37.496;2023-03-13T04:02:50;98818.84;;;-5.35;95.70
54806;BME280;62866;55.776;37.496;2023-03-13T04:05:15;98816.41;;;-5.36;95.59
54806;BME280;62866;55.776;37.496;2023-03-13T04:07:41;98806.78;;;-5.36;95.77
54806;BME280;62866;55.776;37.496;2023-03-13T04:10:07;98823.75;;;-5.30;95.63
54806;BME280;62866;55.776;37.496;2023-03-13T04:12:33;98830.63;;;-5.29;95.15
54806;BME280;62866;55.776;37.496;2023-03-13T04:14:58;98829.91;;;-5.31;95.45
54806;BME280;62866;55.776;37.496;2023-03-13T04:17:24;98814.09;;;-5.41;95.07
54806;BME280;62866;55.776;37.496;2023-03-13T04:19:50;98831.09;;;-5.24;95.22
54806;BME280;62866;55.776;37.496;2023-03-13T04:22:16;98841.31;;;-5.21;95.20
54806;BME280;62866;55.776;37.496;2023-03-13T04:24:41;98842.97;;;-5.20;95.19
54806;BME280;62866;55.776;37.496;2023-03-13T04:27:07;98848.06;;;-5.18;95.11
54806;BME280;62866;55.776;37.496;2023-03-13T04:29:32;98847.94;;;-5.17;95.26
54806;BME280;62866;55.776;37.496;2023-03-13T04:31:58;98858.63;;;-5.20;94.93
54806;BME280;62866;55.776;37.496;2023-03-13T04:34:23;98862.16;;;-5.21;95.21
54806;BME280;62866;55.776;37.496;2023-03-13T04:36:49;98872.13;;;-5.15;95.11
54806;BME280;62866;55.776;37.496;2023-03-13T04:39:15;98852.88;;;-5.25;95.00
54806;BME280;62866;55.776;37.496;2023-03-13T04:41:40;98880.88;;;-5.16;94.86
54806;BME280;62866;55.776;37.496;2023-03-13T04:44:06;98871.66;;;-5.09;94.84
54806;BME280;62866;55.776;37.496;2023-03-13T04:46:31;98881.66;;;-5.03;94.91
54806;BME280;62866;55.776;37.496;2023-03-13T04:48:57;98887.47;;;-4.99;95.08
54806;BME280;62866;55.776;37.496;2023-03-13T04:51:23;98894.44;;;-5.00;95.00
54806;BME280;62866;55.776;37.496;2023-03-13T04:53:49;98902.78;;;-4.94;95.05
54806;BME280;62866;55.776;37.496;2023-03-13T04:56:21;98901.03;;;-4.83;95.21
54806;BME280;62866;55.776;37.496;2023-03-13T04:58:47;98904.25;;;-4.79;94.88
54806;BME280;62866;55.776;37.496;2023-03-13T05:01:12;98911.25;;;-4.80;94.89
54806;BME280;62866;55.776;37.496;2023-03-13T05:03:38;98915.88;;;-4.72;94.94
54806;BME280;62866;55.776;37.496;2023-03-13T05:06:04;98916.13;;;-4.64;94.93
54806;BME280;62866;55.776;37.496;2023-03-13T05:08:29;98918.97;;;-4.67;94.79
54806;BME280;62866;55.776;37.496;2023-03-13T05:10:55;98928.00;;;-4.60;94.79
54806;BME280;62866;55.776;37.496;2023-03-13T05:13:20;98932.31;;;-4.48;94.62
54806;BME280;62866;55.776;37.496;2023-03-13T05:15:46;98940.50;;;-4.41;95.12
54806;BME280;62866;55.776;37.496;2023-03-13T05:18:11;98936.13;;;-4.41;94.97
54806;BME280;62866;55.776;37.496;2023-03-13T05:20:37;98942.31;;;-4.31;95.06
54806;BME280;62866;55.776;37.496;2023-03-13T05:23:02;98954.19;;;-4.15;94.71
54806;BME280;62866;55.776;37.496;2023-03-13T05:25:28;98951.09;;;-4.09;94.80
54806;BME280;62866;55.776;37.496;2023-03-13T05:27:53;98953.50;;;-4.06;94.34
54806;BME280;62866;55.776;37.496;2023-03-13T05:30:19;98958.72;;;-3.95;94.35
54806;BME280;62866;55.776;37.496;2023-03-13T05:32:44;98960.41;;;-3.72;94.74
54806;BME280;62866;55.776;37.496;2023-03-13T05:35:10;98969.53;;;-2.90;94.49
54806;BME280;62866;55.776;37.496;2023-03-13T05:37:36;98962.72;;;-0.20;92.23
54806;BME280;62866;55.776;37.496;2023-03-13T05:40:01;98959.28;;;1.08;89.21
54806;BME280;62866;55.776;37.496;2023-03-13T05:42:28;98972.72;;;1.94;88.41
54806;BME280;62866;55.776;37.496;2023-03-13T05:44:53;98958.44;;;3.06;84.39
54806;BME280;62866;55.776;37.496;2023-03-13T05:47:19;98959.41;;;2.97;81.69
54806;BME280;62866;55.776;37.496;2023-03-13T05:49:44;98966.94;;;2.16;84.00
54806;BME280;62866;55.776;37.496;2023-03-13T05:52:10;98973.28;;;2.99;84.34
54806;BME280;62866;55.776;37.496;2023-03-13T05:54:36;98962.09;;;4.43;79.37
54806;BME280;62866;55.776;37.496;2023-03-13T05:57:02;98967.38;;;5.52;79.06
54806;BME280;62866;55.776;37.496;2023-03-13T05:59:28;98977.00;;;6.13;77.76
54806;BME280;62866;55.776;37.496;2023-03-13T06:01:54;98970.25;;;5.65;77.67
54806;BME280;62866;55.776;37.496;2023-03-13T06:04:19;98980.94;;;6.02;77.47
54806;BME280;62866;55.776;37.496;2023-03-13T06:06:45;98983.63;;;5.71;77.84
54806;BME280;62866;55.776;37.496;2023-03-13T06:09:11;98983.34;;;5.89;75.15
54806;BME280;62866;55.776;37.496;2023-03-13T06:11:36;98986.63;;;6.14;75.81
54806;BME280;62866;55.776;37.496;2023-03-13T06:14:02;98990.72;;;5.25;77.74
54806;BME280;62866;55.776;37.496;2023-03-13T06:16:28;98991.88;;;4.37;80.06
54806;BME280;62866;55.776;37.496;2023-03-13T06:18:53;99001.44;;;4.46;80.29
54806;BME280;62866;55.776;37.496;2023-03-13T06:21:19;99004.28;;;4.36;79.93
54806;BME280;62866;55.776;37.496;2023-03-13T06:23:44;99011.41;;;3.95;80.91
54806;BME280;62866;55.776;37.496;2023-03-13T06:26:10;99005.13;;;3.88;82.21
54806;BME280;62866;55.776;37.496;2023-03-13T06:28:35;98999.28;;;2.86;81.71
54806;BME280;62866;55.776;37.496;2023-03-13T06:31:02;99009.84;;;2.26;83.94
54806;BME280;62866;55.776;37.496;2023-03-13T06:33:29;99025.19;;;2.48;85.28
54806;BME280;62866;55.776;37.496;2023-03-13T06:35:55;99017.84;;;4.41;82.64
54806;BME280;62866;55.776;37.496;2023-03-13T06:38:23;99001.41;;;5.63;78.71
54806;BME280;62866;55.776;37.496;2023-03-13T06:40:48;99017.78;;;5.13;77.86
54806;BME280;62866;55.776;37.496;2023-03-13T06:43:14;99022.16;;;3.94;79.62
54806;BME280;62866;55.776;37.496;2023-03-13T06:45:39;99032.91;;;3.10;82.43
54806;BME280;62866;55.776;37.496;2023-03-13T06:48:05;99038.97;;;3.02;84.98
54806;BME280;62866;55.776;37.496;2023-03-13T06:50:31;99039.19;;;4.40;84.76
54806;BME280;62866;55.776;37.496;2023-03-13T06:52:56;99042.75;;;6.63;81.33
54806;BME280;62866;55.776;37.496;2023-03-13T06:55:23;99039.28;;;7.93;77.29
54806;BME280;62866;55.776;37.496;2023-03-13T06:57:52;99021.31;;;9.68;72.87
54806;BME280;62866;55.776;37.496;2023-03-13T07:00:19;99042.41;;;11.92;66.82
54806;BME280;62866;55.776;37.496;2023-03-13T07:02:44;99044.78;;;12.81;64.16
54806;BME280;62866;55.776;37.496;2023-03-13T07:05:10;99045.03;;;12.79;63.73
54806;BME280;62866;55.776;37.496;2023-03-13T07:07:36;99051.13;;;11.29;63.91
54806;BME280;62866;55.776;37.496;2023-03-13T07:10:02;99051.84;;;10.26;65.76
54806;BME280;62866;55.776;37.496;2023-03-13T07:12:27;99061.78;;;8.89;69.67
54806;BME280;62866;55.776;37.496;2023-03-13T07:14:53;99062.88;;;7.46;73.35
54806;BME280;62866;55.776;37.496;2023-03-13T07:17:18;99067.47;;;6.64;72.97
54806;BME280;62866;55.776;37.496;2023-03-13T07:19:44;99080.88;;;6.85;72.33
54806;BME280;62866;55.776;37.496;2023-03-13T07:22:09;99089.34;;;6.51;72.76
54806;BME280;62866;55.776;37.496;2023-03-13T07:24:35;99078.97;;;5.96;73.27
54806;BME280;62866;55.776;37.496;2023-03-13T07:27:00;99098.16;;;6.66;72.63
54806;BME280;62866;55.776;37.496;2023-03-13T07:29:26;99094.78;;;6.72;72.40
54806;BME280;62866;55.776;37.496;2023-03-13T07:31:52;99098.34;;;5.73;73.61
54806;BME280;62866;55.776;37.496;2023-03-13T07:34:17;99105.81;;;5.31;72.42
54806;BME280;62866;55.776;37.496;2023-03-13T07:36:43;99123.34;;;4.85;73.46
54806;BME280;62866;55.776;37.496;2023-03-13T07:39:08;99125.53;;;4.16;72.28
54806;BME280;62866;55.776;37.496;2023-03-13T07:41:34;99125.94;;;3.79;72.08
54806;BME280;62866;55.776;37.496;2023-03-13T07:43:59;99131.06;;;3.31;72.51
54806;BME280;62866;55.776;37.496;2023-03-13T07:46:25;99117.78;;;2.63;74.25
54806;BME280;62866;55.776;37.496;2023-03-13T07:48:52;99138.44;;;2.42;73.66
54806;BME280;62866;55.776;37.496;2023-03-13T07:51:27;99140.16;;;2.33;73.64
54806;BME280;62866;55.776;37.496;2023-03-13T07:53:52;99139.56;;;2.04;74.80
54806;BME280;62866;55.776;37.496;2023-03-13T07:56:20;99124.25;;;1.72;75.33
54806;BME280;62866;55.776;37.496;2023-03-13T07:58:46;99125.06;;;2.43;73.97
54806;BME280;62866;55.776;37.496;2023-03-13T08:01:20;99128.97;;;3.42;74.98
54806;BME280;62866;55.776;37.496;2023-03-13T08:03:46;99125.47;;;3.84;73.33
54806;BME280;62866;55.776;37.496;2023-03-13T08:06:17;99143.56;;;3.63;73.07
54806;BME280;62866;55.776;37.496;2023-03-13T08:08:43;99123.78;;;3.67;70.71
54806;BME280;62866;55.776;37.496;2023-03-13T08:11:14;99131.69;;;3.59;69.86
54806;BME280;62866;55.776;37.496;2023-03-13T08:13:42;99137.41;;;4.37;69.90
54806;BME280;62866;55.776;37.496;2023-03-13T08:16:13;99134.06;;;5.08;68.29
54806;BME280;62866;55.776;37.496;2023-03-13T08:18:41;99119.97;;;5.07;67.45
54806;BME280;62866;55.776;37.496;2023-03-13T08:21:09;99136.72;;;5.00;67.04
54806;BME280;62866;55.776;37.496;2023-03-13T08:23:36;99136.38;;;5.03;68.55
54806;BME280;62866;55.776;37.496;2023-03-13T08:28:30;99143.63;;;5.17;67.09
54806;BME280;62866;55.776;37.496;2023-03-13T08:30:56;99143.13;;;5.21;67.46
54806;BME280;62866;55.776;37.496;2023-03-13T08:33:21;99149.44;;;5.67;66.13
54806;BME280;62866;55.776;37.496;2023-03-13T08:35:47;99151.97;;;6.83;64.05
54806;BME280;62866;55.776;37.496;2023-03-13T08:38:13;99147.72;;;8.06;61.67
54806;BME280;62866;55.776;37.496;2023-03-13T08:40:38;99157.53;;;8.63;62.09
54806;BME280;62866;55.776;37.496;2023-03-13T08:43:04;99141.28;;;9.07;58.21
54806;BME280;62866;55.776;37.496;2023-03-13T08:45:29;99169.59;;;10.18;56.12
54806;BME280;62866;55.776;37.496;2023-03-13T08:47:55;99165.44;;;10.15;53.79
54806;BME280;62866;55.776;37.496;2023-03-13T08:50:20;99160.00;;;10.43;53.88
54806;BME280;62866;55.776;37.496;2023-03-13T08:52:46;99178.41;;;8.81;56.29
54806;BME280;62866;55.776;37.496;2023-03-13T08:55:11;99174.13;;;7.72;56.69
54806;BME280;62866;55.776;37.496;2023-03-13T08:57:37;99174.25;;;6.97;55.86
54806;BME280;62866;55.776;37.496;2023-03-13T09:00:03;99164.91;;;5.48;57.25
54806;BME280;62866;55.776;37.496;2023-03-13T09:02:31;99192.41;;;5.47;59.05
54806;BME280;62866;55.776;37.496;2023-03-13T09:04:56;99197.97;;;5.76;60.35
54806;BME280;62866;55.776;37.496;2023-03-13T09:07:22;99201.53;;;5.36;61.17
54806;BME280;62866;55.776;37.496;2023-03-13T09:09:48;99191.03;;;4.95;62.14
54806;BME280;62866;55.776;37.496;2023-03-13T09:12:14;99197.66;;;4.51;59.57
54806;BME280;62866;55.776;37.496;2023-03-13T09:14:39;99204.47;;;3.95;60.90
54806;BME280;62866;55.776;37.496;2023-03-13T09:17:06;99216.81;;;3.44;61.93
54806;BME280;62866;55.776;37.496;2023-03-13T09:19:32;99209.53;;;3.38;63.65
54806;BME280;62866;55.776;37.496;2023-03-13T09:21:57;99206.16;;;3.28;62.96
54806;BME280;62866;55.776;37.496;2023-03-13T09:24:23;99214.03;;;2.94;63.23
54806;BME280;62866;55.776;37.496;2023-03-13T09:26:49;99208.88;;;2.67;63.43
54806;BME280;62866;55.776;37.496;2023-03-13T09:29:14;99209.94;;;2.56;63.21
54806;BME280;62866;55.776;37.496;2023-03-13T09:31:40;99215.16;;;2.66;65.44
54806;BME280;62866;55.776;37.496;2023-03-13T09:34:06;99226.94;;;2.97;65.17
54806;BME280;62866;55.776;37.496;2023-03-13T09:36:31;99219.66;;;3.43;64.77
54806;BME280;62866;55.776;37.496;2023-03-13T09:38:58;99230.91;;;3.27;65.55
54806;BME280;62866;55.776;37.496;2023-03-13T09:41:42;99229.66;;;3.31;64.48
54806;BME280;62866;55.776;37.496;2023-03-13T09:44:21;99244.66;;;3.05;66.09
54806;BME280;62866;55.776;37.496;2023-03-13T09:49:28;99240.31;;;2.60;67.55
54806;BME280;62866;55.776;37.496;2023-03-13T09:55:04;99252.97;;;2.21;72.49
54806;BME280;62866;55.776;37.496;2023-03-13T10:00:12;99266.78;;;1.78;71.64
54806;BME280;62866;55.776;37.496;2023-03-13T10:02:42;99250.94;;;1.51;72.92
54806;BME280;62866;55.776;37.496;2023-03-13T10:05:19;99270.84;;;1.26;74.23
54806;BME280;62866;55.776;37.496;2023-03-13T10:07:45;99271.59;;;0.99;75.91
54806;BME280;62866;55.776;37.496;2023-03-13T10:10:20;99271.47;;;0.91;75.61
54806;BME280;62866;55.776;37.496;2023-03-13T10:12:51;99257.47;;;0.62;75.76
54806;BME280;62866;55.776;37.496;2023-03-13T10:15:41;99264.69;;;0.50;75.27
54806;BME280;62866;55.776;37.496;2023-03-13T10:18:27;99282.53;;;0.47;74.85
54806;BME280;62866;55.776;37.496;2023-03-13T10:20:57;99268.38;;;0.19;75.35
54806;BME280;62866;55.776;37.496;2023-03-13T10:23:31;99277.94;;;0.29;75.98
54806;BME280;62866;55.776;37.496;2023-03-13T10:25:59;99282.78;;;0.44;75.67
54806;BME280;62866;55.776;37.496;2023-03-13T10:28:25;99293.19;;;0.55;75.84
54806;BME280;62866;55.776;37.496;2023-03-13T10:31:01;99288.09;;;0.82;75.60
54806;BME280;62866;55.776;37.496;2023-03-13T10:33:31;99287.41;;;0.90;76.48
54806;BME280;62866;55.776;37.496;2023-03-13T10:36:04;99295.25;;;1.09;76.11
54806;BME280;62866;55.776;37.496;2023-03-13T10:38:33;99308.13;;;1.22;75.95
54806;BME280;62866;55.776;37.496;2023-03-13T10:41:03;99300.38;;;1.10;76.66
54806;BME280;62866;55.776;37.496;2023-03-13T10:43:31;99294.31;;;0.91;77.76
54806;BME280;62866;55.776;37.496;2023-03-13T10:45:57;99322.56;;;0.69;78.10
54806;BME280;62866;55.776;37.496;2023-03-13T10:48:26;99330.44;;;0.41;78.22
54806;BME280;62866;55.776;37.496;2023-03-13T10:50:54;99325.84;;;0.33;79.20
54806;BME280;62866;55.776;37.496;2023-03-13T10:56:13;99338.75;;;0.55;79.31
54806;BME280;62866;55.776;37.496;2023-03-13T10:58:50;99349.22;;;0.36;79.38
54806;BME280;62866;55.776;37.496;2023-03-13T11:01:29;99335.81;;;0.39;79.12
54806;BME280;62866;55.776;37.496;2023-03-13T11:06:50;99340.69;;;1.49;79.08
54806;BME280;62866;55.776;37.496;2023-03-13T11:09:17;99342.41;;;1.68;78.33
54806;BME280;62866;55.776;37.496;2023-03-13T11:12:04;99345.22;;;1.67;77.86
54806;BME280;62866;55.776;37.496;2023-03-13T11:14:31;99337.13;;;1.68;78.04
54806;BME280;62866;55.776;37.496;2023-03-13T11:17:02;99360.31;;;1.65;78.81
54806;BME280;62866;55.776;37.496;2023-03-13T11:19:47;99354.38;;;1.53;78.55
54806;BME280;62866;55.776;37.496;2023-03-13T11:27:47;99362.88;;;1.37;75.47
54806;BME280;62866;55.776;37.496;2023-03-13T11:30:29;99369.94;;;1.37;76.27
54806;BME280;62866;55.776;37.496;2023-03-13T11:33:00;99375.91;;;1.20;75.76
54806;BME280;62866;55.776;37.496;2023-03-13T11:38:07;99381.59;;;1.25;73.60
54806;BME280;62866;55.776;37.496;2023-03-13T11:40:51;99384.06;;;1.36;73.57
54806;BME280;62866;55.776;37.496;2023-03-13T11:56:58;99411.16;;;1.94;74.06
54806;BME280;62866;55.776;37.496;2023-03-13T12:02:34;99403.25;;;1.94;71.87
54806;BME280;62866;55.776;37.496;2023-03-13T12:05:05;99413.13;;;1.82;71.12
54806;BME280;62866;55.776;37.496;2023-03-13T12:07:38;99357.34;;;1.31;70.61
54806;BME280;62866;55.776;37.496;2023-03-13T12:13:07;99410.84;;;1.50;73.34
54806;BME280;62866;55.776;37.496;2023-03-13T12:15:40;99425.38;;;1.45;72.01
54806;BME280;62866;55.776;37.496;2023-03-13T12:21:19;99426.25;;;2.02;71.15
54806;BME280;62866;55.776;37.496;2023-03-13T12:26:19;99422.13;;;1.99;68.46
54806;BME280;62866;55.776;37.496;2023-03-13T12:29:14;99424.53;;;1.83;68.21
54806;BME280;62866;55.776;37.496;2023-03-13T12:31:50;99431.47;;;1.45;69.89
54806;BME280;62866;55.776;37.496;2023-03-13T12:42:32;99450.22;;;0.64;72.64
54806;BME280;62866;55.776;37.496;2023-03-13T12:45:01;99457.91;;;0.46;72.05
54806;BME280;62866;55.776;37.496;2023-03-13T12:47:50;99457.91;;;0.46;71.90
54806;BME280;62866;55.776;37.496;2023-03-13T12:50:43;99454.69;;;0.73;72.05
54806;BME280;62866;55.776;37.496;2023-03-13T12:56:26;99451.16;;;1.22;71.44
54806;BME280;62866;55.776;37.496;2023-03-13T13:02:26;99451.91;;;0.34;73.58
54806;BME280;62866;55.776;37.496;2023-03-13T13:04:53;99462.06;;;0.18;73.98
54806;BME280;62866;55.776;37.496;2023-03-13T13:07:40;99461.38;;;0.16;74.38
54806;BME280;62866;55.776;37.496;2023-03-13T13:10:21;99460.84;;;0.22;73.83
54806;BME280;62866;55.776;37.496;2023-03-13T13:15:48;99466.28;;;0.30;71.99
54806;BME280;62866;55.776;37.496;2023-03-13T13:18:29;99478.25;;;0.44;72.27
54806;BME280;62866;55.776;37.496;2023-03-13T13:23:37;99479.97;;;0.24;73.52
54806;BME280;62866;55.776;37.496;2023-03-13T13:39:42;99482.47;;;-0.36;74.87
54806;BME280;62866;55.776;37.496;2023-03-13T13:45:03;99490.34;;;-0.36;73.38
54806;BME280;62866;55.776;37.496;2023-03-13T13:47:49;99480.81;;;-0.38;73.31
54806;BME280;62866;55.776;37.496;2023-03-13T13:50:27;99496.47;;;-0.47;74.97
54806;BME280;62866;55.776;37.496;2023-03-13T13:53:28;99486.22;;;-0.50;72.78
54806;BME280;62866;55.776;37.496;2023-03-13T13:55:54;99493.75;;;-0.46;73.72
54806;BME280;62866;55.776;37.496;2023-03-13T13:58:27;99501.38;;;-0.43;73.13
54806;BME280;62866;55.776;37.496;2023-03-13T14:00:59;99493.53;;;-0.33;74.07
54806;BME280;62866;55.776;37.496;2023-03-13T14:03:27;99500.59;;;-0.33;72.79
54806;BME280;62866;55.776;37.496;2023-03-13T14:06:00;99487.59;;;-0.35;74.05
54806;BME280;62866;55.776;37.496;2023-03-13T14:08:32;99500.97;;;-0.38;73.68
54806;BME280;62866;55.776;37.496;2023-03-13T14:11:31;99504.53;;;-0.28;73.76
54806;BME280;62866;55.776;37.496;2023-03-13T14:14:19;99501.09;;;-0.40;73.55
54806;BME280;62866;55.776;37.496;2023-03-13T14:16:48;99508.53;;;-0.45;72.96
54806;BME280;62866;55.776;37.496;2023-03-13T14:19:21;99503.66;;;-0.49;73.94
54806;BME280;62866;55.776;37.496;2023-03-13T14:21:48;99499.03;;;-0.57;73.88
54806;BME280;62866;55.776;37.496;2023-03-13T14:24:14;99512.16;;;-0.57;75.41
54806;BME280;62866;55.776;37.496;2023-03-13T14:26:44;99513.59;;;-0.53;74.12
54806;BME280;62866;55.776;37.496;2023-03-13T14:29:17;99504.78;;;-0.63;74.29
54806;BME280;62866;55.776;37.496;2023-03-13T14:31:55;99515.59;;;-0.45;73.79
54806;BME280;62866;55.776;37.496;2023-03-13T14:34:21;99511.53;;;-0.49;72.33